Xin Dan Dong — BPBY — position and weather

sailwx.info

Track history (hours):
 
Tides and Currents Weather Stations Pressure Air Temp Water Temp Dewpoint Dewpoint Depression Visibility Wind Speed Wind Dir Waves Ship Positions

Xin Dan Dong

Last reported at 2014-Dec-17 20:05 UTC. Time now 2014-Dec-20 12:10 UTC.
Position N 24°43' E 119°24'.

Length 263 m; draft 10.1 m.

Type: Cargo ship. MMSI: 413153000.

Date/timePositionNaut miles runAvg speedWind from/ knotsBaromVisibWave heightAir tempDewpointWater temp
2014-Dec-17 20:05N 24°43' E 119°24'611.3
2014-Dec-17 19:33N 24°39' E 119°19'1111.4
2014-Dec-17 18:33N 24°31' E 119°10'1311.2
2014-Dec-17 17:23N 24°22' E 118°59'910.0
2014-Dec-17 16:32N 24°17' E 118°52'1010.1
2014-Dec-17 15:33N 24°10' E 118°44'1010.2
2014-Dec-17 14:32N 24°02' E 118°37'25910.8
2014-Dec-16 14:32N 21°60' E 114°29'2311.4
2014-Dec-16 12:33N 21°58' E 114°05'1312.4
2014-Dec-16 11:31N 22°03' E 113°52'1212.7
2014-Dec-16 10:33N 22°15' E 113°48'10 9.6
2014-Dec-16 09:33N 22°24' E 113°46'1110.6
2014-Dec-16 08:33N 22°34' E 113°43'5 0.2
2014-Dec-15 10:33N 22°39' E 113°41'10 9.8
2014-Dec-15 09:33N 22°30' E 113°45'1414.4
2014-Dec-15 08:33N 22°16' E 113°48'1514.8
2014-Dec-15 07:32N 22°02' E 113°53'24013.2
2014-Dec-14 13:25N 23°29' E 117°56'1214.3
2014-Dec-14 12:33N 23°37' E 118°06'1413.8
2014-Dec-14 11:33N 23°49' E 118°15'1413.8
2014-Dec-14 10:33N 24°02' E 118°17'1312.5
2014-Dec-14 09:33N 24°15' E 118°16'1212.4
2014-Dec-14 08:33N 24°24' E 118°07'3 1.0
2014-Dec-14 05:30N 24°25' E 118°04'0 0.0
2014-Dec-14 04:30N 24°25' E 118°04'0 0.0
2014-Dec-14 02:11N 24°25' E 118°04'0 0.0
2014-Dec-14 01:17N 24°25' E 118°04'0 0.0
2014-Dec-13 23:09N 24°25' E 118°04'0 0.0
2014-Dec-13 22:09N 24°25' E 118°04'0 0.0
2014-Dec-13 21:03N 24°25' E 118°04'0 0.0
2014-Dec-13 20:33N 24°25' E 118°04'0 0.0
2014-Dec-13 19:15N 24°25' E 118°04'0 0.0
2014-Dec-13 18:21N 24°25' E 118°04'0 0.0
2014-Dec-13 17:27N 24°25' E 118°04'0 0.0
2014-Dec-13 15:27N 24°25' E 118°04'0 0.1
2014-Dec-13 14:27N 24°25' E 118°04'0 0.0
2014-Dec-13 12:09N 24°25' E 118°04'0 0.1
2014-Dec-13 11:33N 24°25' E 118°04'0 0.0
2014-Dec-13 10:33N 24°25' E 118°04'0 0.0
2014-Dec-13 09:21N 24°25' E 118°04'0 0.1
2014-Dec-13 08:27N 24°25' E 118°04'0 0.0
2014-Dec-13 07:27N 24°25' E 118°04'0 0.1
2014-Dec-13 06:30N 24°25' E 118°04'4 4.1
2014-Dec-13 05:34N 24°23' E 118°07'9 8.6
2014-Dec-13 04:33N 24°17' E 118°14'9 8.7
2014-Dec-13 03:33N 24°15' E 118°23'0 0.2
2014-Dec-13 02:17N 24°15' E 118°23'0 0.0
2014-Dec-13 01:04N 24°15' E 118°23'0 0.0
2014-Dec-13 00:22N 24°15' E 118°23'0 0.0
2014-Dec-12 23:10N 24°15' E 118°23'0 0.1
2014-Dec-12 22:23N 24°15' E 118°23'0 0.0
2014-Dec-12 21:31N 24°15' E 118°23'0 0.0
2014-Dec-12 20:25N 24°15' E 118°23'0 0.0
2014-Dec-12 19:13N 24°15' E 118°23'0 0.0
2014-Dec-12 18:25N 24°15' E 118°23'0 0.0
2014-Dec-12 17:31N 24°15' E 118°23'4 1.9
2014-Dec-12 15:33N 24°14' E 118°27'2712.6
2014-Dec-12 13:23N 24°20' E 118°56'1713.1
2014-Dec-12 12:05N 24°31' E 119°10'713.4
2014-Dec-12 11:33N 24°36' E 119°16'  
2014-Dec-09 21:32N 37°18' E 123°06'2512.9
2014-Dec-09 19:33N 37°38' E 122°47'1313.0
2014-Dec-09 18:33N 37°48' E 122°35'6112.2
2014-Dec-09 13:30N 38°18' E 121°28'120 9.2
2014-Dec-09 00:29N 40°17' E 121°50'1112.3
2014-Dec-08 23:33N 40°17' E 122°05'1 0.8
2014-Dec-08 22:33N 40°16' E 122°06'0 0.0
2014-Dec-08 21:28N 40°16' E 122°06'0 0.0
2014-Dec-08 20:22N 40°16' E 122°06'0 0.0
2014-Dec-08 19:28N 40°16' E 122°06'0 0.0
2014-Dec-08 18:22N 40°16' E 122°06'0 0.0
2014-Dec-08 17:28N 40°16' E 122°06'0 0.0
2014-Dec-08 16:28N 40°16' E 122°06'0 0.0
2014-Dec-08 15:24N 40°16' E 122°06'0 0.0
2014-Dec-08 14:30N 40°16' E 122°06'0 0.0
2014-Dec-08 13:23N 40°16' E 122°06'0 0.0
2014-Dec-08 12:23N 40°16' E 122°06'0 0.0
2014-Dec-08 11:29N 40°16' E 122°06'0 0.0
2014-Dec-08 10:23N 40°16' E 122°06'0 0.0
2014-Dec-08 09:23N 40°16' E 122°06'0 0.0
2014-Dec-08 08:29N 40°16' E 122°06'0 0.0
2014-Dec-08 07:23N 40°16' E 122°06'0 0.0
2014-Dec-08 06:29N 40°16' E 122°06'0 0.0
2014-Dec-08 05:23N 40°16' E 122°06'0 0.0
2014-Dec-08 04:17N 40°16' E 122°06'0 0.0
2014-Dec-08 03:29N 40°16' E 122°06'0 0.0
2014-Dec-08 02:23N 40°16' E 122°06'  
Track history (hours):
 
Tides and Currents Weather Stations Pressure Air Temp Water Temp Dewpoint Dewpoint Depression Visibility Wind Speed Wind Dir Waves Ship Positions

Xin Dan Dong

Last reported at 2014-Dec-17 20:05 UTC. Time now 2014-Dec-20 12:10 UTC.
Position N 24°43' E 119°24'.

Length 263 m; draft 10.1 m.

Type: Cargo ship. MMSI: 413153000.

Date/timePositionNaut miles runAvg speedWind from/ knotsBaromVisibWave heightAir tempDewpointWater temp
2014-Dec-17 20:05N 24°43' E 119°24'611.3
2014-Dec-17 19:33N 24°39' E 119°19'1111.4
2014-Dec-17 18:33N 24°31' E 119°10'1311.2
2014-Dec-17 17:23N 24°22' E 118°59'910.0
2014-Dec-17 16:32N 24°17' E 118°52'1010.1
2014-Dec-17 15:33N 24°10' E 118°44'1010.2
2014-Dec-17 14:32N 24°02' E 118°37'25910.8
2014-Dec-16 14:32N 21°60' E 114°29'2311.4
2014-Dec-16 12:33N 21°58' E 114°05'1312.4
2014-Dec-16 11:31N 22°03' E 113°52'1212.7
2014-Dec-16 10:33N 22°15' E 113°48'10 9.6
2014-Dec-16 09:33N 22°24' E 113°46'1110.6
2014-Dec-16 08:33N 22°34' E 113°43'5 0.2
2014-Dec-15 10:33N 22°39' E 113°41'10 9.8
2014-Dec-15 09:33N 22°30' E 113°45'1414.4
2014-Dec-15 08:33N 22°16' E 113°48'1514.8
2014-Dec-15 07:32N 22°02' E 113°53'24013.2
2014-Dec-14 13:25N 23°29' E 117°56'1214.3
2014-Dec-14 12:33N 23°37' E 118°06'1413.8
2014-Dec-14 11:33N 23°49' E 118°15'1413.8
2014-Dec-14 10:33N 24°02' E 118°17'1312.5
2014-Dec-14 09:33N 24°15' E 118°16'1212.4
2014-Dec-14 08:33N 24°24' E 118°07'3 1.0
2014-Dec-14 05:30N 24°25' E 118°04'0 0.0
2014-Dec-14 04:30N 24°25' E 118°04'0 0.0
2014-Dec-14 02:11N 24°25' E 118°04'0 0.0
2014-Dec-14 01:17N 24°25' E 118°04'0 0.0
2014-Dec-13 23:09N 24°25' E 118°04'0 0.0
2014-Dec-13 22:09N 24°25' E 118°04'0 0.0
2014-Dec-13 21:03N 24°25' E 118°04'0 0.0
2014-Dec-13 20:33N 24°25' E 118°04'0 0.0
2014-Dec-13 19:15N 24°25' E 118°04'0 0.0
2014-Dec-13 18:21N 24°25' E 118°04'0 0.0
2014-Dec-13 17:27N 24°25' E 118°04'0 0.0
2014-Dec-13 15:27N 24°25' E 118°04'0 0.1
2014-Dec-13 14:27N 24°25' E 118°04'0 0.0
2014-Dec-13 12:09N 24°25' E 118°04'0 0.1
2014-Dec-13 11:33N 24°25' E 118°04'0 0.0
2014-Dec-13 10:33N 24°25' E 118°04'0 0.0
2014-Dec-13 09:21N 24°25' E 118°04'0 0.1
2014-Dec-13 08:27N 24°25' E 118°04'0 0.0
2014-Dec-13 07:27N 24°25' E 118°04'0 0.1
2014-Dec-13 06:30N 24°25' E 118°04'4 4.1
2014-Dec-13 05:34N 24°23' E 118°07'9 8.6
2014-Dec-13 04:33N 24°17' E 118°14'9 8.7
2014-Dec-13 03:33N 24°15' E 118°23'0 0.2
2014-Dec-13 02:17N 24°15' E 118°23'0 0.0
2014-Dec-13 01:04N 24°15' E 118°23'0 0.0
2014-Dec-13 00:22N 24°15' E 118°23'0 0.0
2014-Dec-12 23:10N 24°15' E 118°23'0 0.1
2014-Dec-12 22:23N 24°15' E 118°23'0 0.0
2014-Dec-12 21:31N 24°15' E 118°23'0 0.0
2014-Dec-12 20:25N 24°15' E 118°23'0 0.0
2014-Dec-12 19:13N 24°15' E 118°23'0 0.0
2014-Dec-12 18:25N 24°15' E 118°23'0 0.0
2014-Dec-12 17:31N 24°15' E 118°23'4 1.9
2014-Dec-12 15:33N 24°14' E 118°27'2712.6
2014-Dec-12 13:23N 24°20' E 118°56'1713.1
2014-Dec-12 12:05N 24°31' E 119°10'713.4
2014-Dec-12 11:33N 24°36' E 119°16'  
2014-Dec-09 21:32N 37°18' E 123°06'2512.9
2014-Dec-09 19:33N 37°38' E 122°47'1313.0
2014-Dec-09 18:33N 37°48' E 122°35'6112.2
2014-Dec-09 13:30N 38°18' E 121°28'120 9.2
2014-Dec-09 00:29N 40°17' E 121°50'1112.3
2014-Dec-08 23:33N 40°17' E 122°05'1 0.8
2014-Dec-08 22:33N 40°16' E 122°06'0 0.0
2014-Dec-08 21:28N 40°16' E 122°06'0 0.0
2014-Dec-08 20:22N 40°16' E 122°06'0 0.0
2014-Dec-08 19:28N 40°16' E 122°06'0 0.0
2014-Dec-08 18:22N 40°16' E 122°06'0 0.0
2014-Dec-08 17:28N 40°16' E 122°06'0 0.0
2014-Dec-08 16:28N 40°16' E 122°06'0 0.0
2014-Dec-08 15:24N 40°16' E 122°06'0 0.0
2014-Dec-08 14:30N 40°16' E 122°06'0 0.0
2014-Dec-08 13:23N 40°16' E 122°06'0 0.0
2014-Dec-08 12:23N 40°16' E 122°06'0 0.0
2014-Dec-08 11:29N 40°16' E 122°06'0 0.0
2014-Dec-08 10:23N 40°16' E 122°06'0 0.0
2014-Dec-08 09:23N 40°16' E 122°06'0 0.0
2014-Dec-08 08:29N 40°16' E 122°06'0 0.0
2014-Dec-08 07:23N 40°16' E 122°06'0 0.0
2014-Dec-08 06:29N 40°16' E 122°06'0 0.0
2014-Dec-08 05:23N 40°16' E 122°06'0 0.0
2014-Dec-08 04:17N 40°16' E 122°06'0 0.0
2014-Dec-08 03:29N 40°16' E 122°06'0 0.0
2014-Dec-08 02:23N 40°16' E 122°06'  

Dump ship's entire track history